Time;durP1;ratioP1;P1;durP2;ratioP2;P2;SDS_P1;SDS_P2;PMS_P1;PMS_P2;Temp;Humidity;BMP_temperature;BMP_pressure;BME280_temperature;BME280_humidity;BME280_pressure;Samples;Min_cycle;Max_cycle;Signal;HPM_P1;HPM_P2
2023/03/26 00:01:48;;;;;;;2.30;1.07;;;;;;;9.09;73.65;98233.31;5092765;28;41642;-78
2023/03/26 00:04:18;;;;;;;3.43;1.20;;;;;;;9.06;73.32;98228.25;5092780;28;41750;-79
2023/03/26 00:06:49;;;;;;;2.53;0.90;;;;;;;9.02;73.55;98227.63;5093029;28;41007;-79
2023/03/26 00:09:17;;;;;;;6.63;1.43;;;;;;;9.02;73.48;98239.00;5110011;28;40895;-78
2023/03/26 00:11:45;;;;;;;2.60;1.03;;;;;;;8.97;73.43;98222.63;5076124;28;42474;-78
2023/03/26 00:14:16;;;;;;;3.47;0.97;;;;;;;9.06;73.29;98229.09;5075899;28;41798;-78
2023/03/26 00:16:46;;;;;;;4.00;1.07;;;;;;;9.06;73.57;98225.59;5110389;28;38937;-78
2023/03/26 00:19:13;;;;;;;5.60;1.17;;;;;;;9.18;73.13;98232.69;5075505;28;40572;-78
2023/03/26 00:21:41;;;;;;;2.00;0.70;;;;;;;9.13;72.65;98211.06;5127276;27;42587;-79
2023/03/26 00:24:13;;;;;;;3.43;1.07;;;;;;;9.36;72.25;98234.13;5075859;28;41252;-78
2023/03/26 00:26:42;;;;;;;3.43;1.00;;;;;;;9.47;72.17;98243.97;5076378;28;39309;-78
2023/03/26 00:29:12;;;;;;;2.73;1.03;;;;;;;9.55;71.49;98237.19;5109709;28;40739;-78
2023/03/26 00:31:44;;;;;;;4.53;1.47;;;;;;;9.61;71.50;98234.16;5127144;27;42594;-78
2023/03/26 00:34:14;;;;;;;3.50;1.10;;;;;;;9.64;71.19;98241.84;5092225;28;43181;-78
2023/03/26 00:36:42;;;;;;;3.13;1.00;;;;;;;9.72;71.27;98239.56;5126709;27;39919;-78
2023/03/26 00:39:12;;;;;;;1.30;0.90;;;;;;;9.69;70.62;98225.69;5126574;27;42645;-78
2023/03/26 00:41:41;;;;;;;3.63;1.00;;;;;;;9.84;70.63;98247.59;5075746;28;41809;-78
2023/03/26 00:44:10;;;;;;;2.10;0.83;;;;;;;9.90;70.20;98245.34;5092006;28;42694;-78
2023/03/26 00:46:38;;;;;;;4.53;1.60;;;;;;;9.92;70.35;98242.59;5092744;28;40901;-78
2023/03/26 00:49:09;;;;;;;4.63;1.00;;;;;;;9.94;70.11;98238.06;5126687;27;42400;-78
2023/03/26 00:51:37;;;;;;;4.00;1.10;;;;;;;9.97;70.00;98240.50;5090184;28;43251;-78
2023/03/26 00:54:06;;;;;;;2.47;1.10;;;;;;;9.99;70.25;98243.88;5092055;28;41284;-78
2023/03/26 00:56:35;;;;;;;5.03;1.80;;;;;;;9.98;70.22;98235.09;5126806;27;40366;-78
2023/03/26 00:59:03;;;;;;;4.10;1.10;;;;;;;9.95;70.59;98226.53;5091912;28;41730;-78
2023/03/26 01:01:31;;;;;;;4.77;1.50;;;;;;;10.02;70.53;98230.41;5126696;27;43175;-78
2023/03/26 01:04:22;;;;;;;4.30;1.50;;;;;;;10.02;70.52;98223.31;5075072;28;42031;-78
2023/03/26 01:06:51;;;;;;;5.33;1.50;;;;;;;10.00;70.09;98227.06;5092073;28;41112;-78
2023/03/26 01:09:22;;;;;;;4.53;1.03;;;;;;;9.99;70.21;98230.66;5125725;27;41898;-78
2023/03/26 01:11:51;;;;;;;4.40;1.40;;;;;;;9.98;70.49;98224.53;5093097;28;43875;-78
2023/03/26 01:14:22;;;;;;;2.83;1.13;;;;;;;9.61;70.02;98173.34;5091767;28;41852;-78
2023/03/26 01:16:53;;;;;;;5.37;1.40;;;;;;;9.97;70.58;98228.13;5090134;28;40145;-79
2023/03/26 01:19:29;;;;;;;5.77;2.57;;;;;;;9.96;70.32;98225.56;5108220;28;42187;-78
2023/03/26 01:21:58;;;;;;;7.87;1.93;;;;;;;9.94;70.55;98219.53;5092312;28;41689;-78
2023/03/26 01:24:27;;;;;;;5.17;1.40;;;;;;;9.93;70.41;98220.50;5091483;28;42379;-78
2023/03/26 01:27:09;;;;;;;3.63;1.30;;;;;;;9.86;70.64;98219.25;5075175;28;39845;-77
2023/03/26 01:29:43;;;;;;;4.50;1.20;;;;;;;9.78;70.56;98221.53;5075428;28;40976;-78
2023/03/26 01:32:22;;;;;;;2.37;1.57;;;;;;;9.71;70.57;98216.69;5091245;28;42969;-79
2023/03/26 01:35:01;;;;;;;4.53;1.17;;;;;;;9.63;70.62;98207.63;5122826;27;42103;-78
2023/03/26 01:37:37;;;;;;;4.23;1.20;;;;;;;9.53;70.90;98212.66;5091468;28;40951;-78
2023/03/26 01:40:22;;;;;;;2.60;1.23;;;;;;;9.36;71.17;98199.78;5108425;28;42115;-78
2023/03/26 01:42:56;;;;;;;2.73;1.20;;;;;;;9.35;71.21;98203.38;5075079;28;41785;-78
2023/03/26 01:45:28;;;;;;;3.20;1.07;;;;;;;9.26;71.57;98204.00;5122684;27;42472;-78
2023/03/26 01:47:56;;;;;;;3.87;1.30;;;;;;;9.16;71.80;98194.97;5074733;28;38880;-78
2023/03/26 01:50:24;;;;;;;3.40;1.40;;;;;;;9.03;71.83;98181.75;5092800;28;41649;-78
2023/03/26 01:52:52;;;;;;;6.50;1.20;;;;;;;8.98;72.28;98187.34;5091399;28;42865;-78
2023/03/26 01:55:28;;;;;;;3.83;1.57;;;;;;;8.94;73.23;98179.72;5091382;28;41203;-79
2023/03/26 01:58:05;;;;;;;5.47;1.50;;;;;;;8.57;73.48;98120.59;5074894;28;40119;-78
2023/03/26 02:00:36;;;;;;;3.57;1.50;;;;;;;8.86;73.97;98168.84;5074607;28;40693;-78
2023/03/26 02:03:17;;;;;;;4.77;1.30;;;;;;;8.82;74.15;98157.63;5075623;28;41654;-78
2023/03/26 02:05:52;;;;;;;3.67;1.23;;;;;;;8.76;73.81;98147.50;5078466;28;41310;-78
2023/03/26 02:08:24;;;;;;;3.73;1.30;;;;;;;8.70;74.19;98145.25;5127614;27;40051;-79
2023/03/26 02:10:57;;;;;;;5.23;1.60;;;;;;;8.67;74.86;98142.78;5095308;28;41450;-78
2023/03/26 02:13:26;;;;;;;6.50;1.40;;;;;;;8.65;75.29;98134.16;5130706;27;42895;-79
2023/03/26 02:15:59;;;;;;;7.63;1.50;;;;;;;8.61;75.63;98127.38;5122795;28;40863;-79
2023/03/26 02:18:35;;;;;;;4.27;1.30;;;;;;;8.58;75.22;98122.31;5081098;28;39222;-78
2023/03/26 02:21:05;;;;;;;5.13;1.60;;;;;;;8.54;75.81;98126.06;5095000;28;42013;-79
2023/03/26 02:23:34;;;;;;;3.37;1.40;;;;;;;8.47;76.41;98120.38;5111322;28;41342;-78
2023/03/26 02:26:07;;;;;;;4.97;1.50;;;;;;;8.45;76.61;98121.41;5094404;28;42340;-79
2023/03/26 02:28:37;;;;;;;6.03;1.40;;;;;;;8.43;76.59;98120.66;5128845;27;39986;-78
2023/03/26 02:31:08;;;;;;;7.80;1.50;;;;;;;8.38;77.14;98113.06;5128861;27;41842;-78
2023/03/26 02:33:37;;;;;;;4.20;1.53;;;;;;;8.37;76.99;98113.16;5077490;28;43138;-78
2023/03/26 02:36:07;;;;;;;5.20;1.43;;;;;;;8.38;76.99;98120.13;5128600;27;42174;-78
2023/03/26 02:38:35;;;;;;;10.23;1.87;;;;;;;8.37;77.65;98118.44;5128697;27;41119;-78
2023/03/26 02:41:06;;;;;;;6.87;1.70;;;;;;;8.35;77.63;98115.06;5094712;28;41500;-79
2023/03/26 02:43:56;;;;;;;3.43;1.60;;;;;;;8.38;77.69;98114.84;5095497;27;42768;-78
2023/03/26 02:46:33;;;;;;;8.23;1.57;;;;;;;8.35;77.70;98109.78;5125294;27;42921;-78
2023/03/26 02:49:15;;;;;;;5.63;1.37;;;;;;;8.32;77.67;98105.53;5094083;28;38804;-78
2023/03/26 02:51:44;;;;;;;7.53;1.50;;;;;;;8.26;77.21;98101.50;5077206;28;41801;-78
2023/03/26 02:54:26;;;;;;;5.70;1.30;;;;;;;8.32;77.41;98120.53;5094326;28;42796;-78
2023/03/26 02:57:15;;;;;;;4.17;1.40;;;;;;;8.30;77.58;98108.25;5111331;28;42489;-78
2023/03/26 02:59:49;;;;;;;5.17;1.60;;;;;;;8.29;77.43;98106.53;5092385;28;39889;-78
2023/03/26 03:02:37;;;;;;;5.43;1.60;;;;;;;8.27;77.31;98104.97;5093979;28;40775;-78
2023/03/26 03:05:25;;;;;;;3.00;1.20;;;;;;;8.21;77.64;98095.66;5091873;28;43146;-78
2023/03/26 03:08:05;;;;;;;3.97;1.63;;;;;;;8.18;77.27;98097.63;5077043;28;42347;-78
2023/03/26 03:10:36;;;;;;;5.10;1.63;;;;;;;8.17;77.72;98091.53;5111074;28;40017;-77
2023/03/26 03:13:14;;;;;;;6.83;1.40;;;;;;;8.17;78.05;98091.53;5110668;28;41722;-77
2023/03/26 03:15:42;;;;;;;4.37;1.40;;;;;;;8.18;77.54;98098.50;5093726;28;42732;-78
2023/03/26 03:18:10;;;;;;;6.43;1.37;;;;;;;8.18;77.18;98100.28;5093587;28;43220;-78
2023/03/26 03:20:38;;;;;;;5.67;1.47;;;;;;;8.16;77.37;98105.66;5110509;28;39709;-78
2023/03/26 03:23:05;;;;;;;5.40;1.20;;;;;;;8.12;77.36;98093.63;5110834;28;40558;-78
2023/03/26 03:25:33;;;;;;;4.63;1.23;;;;;;;8.12;76.92;98101.53;5127591;27;42771;-78
2023/03/26 03:28:02;;;;;;;9.27;1.90;;;;;;;8.12;77.43;98093.63;5093599;28;42472;-78
2023/03/26 03:30:31;;;;;;;4.30;1.40;;;;;;;8.03;77.25;98074.94;5127787;27;40246;-78
2023/03/26 03:33:28;;;;;;;3.97;1.40;;;;;;;8.13;77.31;98083.94;5083740;28;40703;-78
2023/03/26 03:35:58;;;;;;;3.53;1.30;;;;;;;8.06;77.73;98075.56;5094453;28;42968;-78
2023/03/26 03:38:27;;;;;;;5.13;1.17;;;;;;;8.08;77.57;98084.22;5076334;28;43089;-78
2023/03/26 03:40:56;;;;;;;4.17;1.27;;;;;;;7.97;77.83;98068.25;5076312;28;40071;-79
2023/03/26 03:43:28;;;;;;;7.90;1.87;;;;;;;8.05;78.13;98081.75;5075986;28;41827;-78
2023/03/26 03:46:06;;;;;;;8.83;1.70;;;;;;;8.09;78.34;98072.72;5110201;28;41598;-78
2023/03/26 03:48:38;;;;;;;7.50;1.77;;;;;;;8.06;78.11;98067.63;5127383;27;42166;-78
2023/03/26 03:51:07;;;;;;;3.57;1.23;;;;;;;8.14;77.58;98078.56;5077378;28;38857;-78
2023/03/26 03:53:48;;;;;;;6.00;2.07;;;;;;;8.15;77.45;98076.78;5127156;27;41925;-78
2023/03/26 03:56:23;;;;;;;4.37;1.30;;;;;;;8.00;77.64;98052.25;5111488;28;42685;-78
2023/03/26 03:59:09;;;;;;;5.63;1.57;;;;;;;8.13;77.40;98082.13;5094658;28;42642;-78
2023/03/26 04:01:42;;;;;;;8.27;1.87;;;;;;;8.14;77.96;98072.44;5109978;28;38853;-78
2023/03/26 04:04:16;;;;;;;7.93;1.90;;;;;;;8.15;77.87;98071.50;5092942;28;41806;-78
2023/03/26 04:07:04;;;;;;;6.30;1.80;;;;;;;8.16;78.11;98071.38;5092809;28;43078;-78
2023/03/26 04:10:01;;;;;;;6.70;1.60;;;;;;;8.20;78.23;98070.22;5076797;28;42199;-78
2023/03/26 04:12:36;;;;;;;6.53;1.60;;;;;;;8.23;77.89;98075.31;5110044;28;40296;-78
2023/03/26 04:15:06;;;;;;;7.00;1.60;;;;;;;8.25;77.54;98069.94;5109393;28;42133;-78
2023/03/26 04:17:43;;;;;;;3.43;1.43;;;;;;;8.18;77.83;98061.56;5127089;27;42946;-78
2023/03/26 04:20:14;;;;;;;5.80;1.57;;;;;;;8.23;77.98;98069.19;5075284;28;40951;-78
2023/03/26 04:22:43;;;;;;;6.43;1.70;;;;;;;8.29;77.75;98074.91;5093079;28;39933;-78
2023/03/26 04:25:14;;;;;;;5.80;1.90;;;;;;;8.34;77.95;98073.78;5108693;27;40739;-78
2023/03/26 04:27:54;;;;;;;6.23;1.50;;;;;;;8.42;77.41;98076.75;5123953;27;43497;-79
2023/03/26 04:30:53;;;;;;;5.73;1.60;;;;;;;8.51;77.71;98068.25;5109277;28;41238;-78
2023/03/26 04:33:35;;;;;;;5.03;1.30;;;;;;;8.58;77.51;98064.25;5123725;27;40032;-78
2023/03/26 04:36:06;;;;;;;7.57;1.50;;;;;;;8.64;76.93;98058.56;5109513;28;40725;-78
2023/03/26 04:38:41;;;;;;;5.70;1.10;;;;;;;8.69;76.99;98051.16;5089487;28;42641;-78
2023/03/26 04:41:12;;;;;;;9.50;3.17;;;;;;;8.72;76.82;98045.69;5109546;28;41024;-78
2023/03/26 04:43:46;;;;;;;4.53;1.40;;;;;;;8.78;77.01;98045.25;5090628;28;40022;-78
2023/03/26 04:46:33;;;;;;;5.33;1.20;;;;;;;8.82;76.74;98059.09;5093330;27;41479;-78
2023/03/26 04:49:14;;;;;;;7.17;1.80;;;;;;;8.83;76.72;98045.78;5109418;28;42201;-78
2023/03/26 04:51:45;;;;;;;4.27;1.33;;;;;;;8.85;76.32;98049.19;5126565;27;42506;-78
2023/03/26 04:54:36;;;;;;;7.87;1.63;;;;;;;8.83;76.41;98037.88;5072407;28;38973;-78
2023/03/26 04:57:12;;;;;;;5.33;1.63;;;;;;;8.81;76.18;98034.50;5109507;28;40751;-78
2023/03/26 04:59:49;;;;;;;5.23;1.50;;;;;;;8.81;76.46;98036.28;5075292;28;41744;-78
2023/03/26 05:02:19;;;;;;;4.80;1.20;;;;;;;8.79;76.01;98028.47;5108682;28;41561;-78
2023/03/26 05:04:56;;;;;;;7.57;1.80;;;;;;;8.81;76.25;98033.66;5075116;28;41375;-78
2023/03/26 05:07:26;;;;;;;3.57;1.17;;;;;;;8.78;76.54;98020.69;5123340;27;41561;-78
2023/03/26 05:09:57;;;;;;;6.00;1.40;;;;;;;8.76;76.38;98010.22;5130057;27;42808;-78
2023/03/26 05:13:00;;;;;;;3.00;1.40;;;;;;;8.73;76.28;97999.88;5037672;28;41408;-78
2023/03/26 05:15:33;;;;;;;4.03;1.80;;;;;;;8.74;76.35;97998.91;5068565;28;39318;-78
2023/03/26 05:18:13;;;;;;;2.83;1.50;;;;;;;8.68;76.12;97980.00;5123094;27;42705;-78
2023/03/26 05:20:45;;;;;;;4.93;1.63;;;;;;;8.63;76.09;97957.44;5108384;28;41973;-78
2023/03/26 05:23:13;;;;;;;3.80;1.53;;;;;;;8.84;76.13;97986.78;5074641;28;41288;-78
2023/03/26 05:25:49;;;;;;;4.20;1.10;;;;;;;8.84;75.73;97976.22;5074882;28;39632;-78
2023/03/26 05:28:23;;;;;;;3.07;1.50;;;;;;;8.83;75.65;97968.41;5089595;28;42645;-78
2023/03/26 05:31:25;;;;;;;3.10;1.20;;;;;;;8.86;76.03;97978.75;5068913;28;42601;-79
2023/03/26 05:33:56;;;;;;;2.30;1.13;;;;;;;8.81;75.67;97965.84;5122420;27;43246;-78
2023/03/26 05:36:27;;;;;;;5.70;1.43;;;;;;;8.77;76.11;97959.13;5091290;28;39859;-79
2023/03/26 05:39:05;;;;;;;5.67;1.40;;;;;;;8.74;76.41;97959.31;5091175;28;40368;-78
2023/03/26 05:41:58;;;;;;;5.00;1.60;;;;;;;8.70;76.69;97947.28;5108520;28;41778;-78
2023/03/26 05:44:35;;;;;;;3.93;1.10;;;;;;;8.63;76.31;97930.19;5122967;27;42566;-79
2023/03/26 05:47:07;;;;;;;5.77;1.50;;;;;;;8.81;76.33;97949.16;5091532;28;42215;-79
2023/03/26 05:49:36;;;;;;;5.03;1.33;;;;;;;8.78;76.15;97928.28;5091376;28;41923;-78
2023/03/26 05:52:05;;;;;;;5.20;1.60;;;;;;;8.90;76.01;97935.34;5074591;28;41864;-79
2023/03/26 05:54:59;;;;;;;2.67;1.23;;;;;;;8.99;75.55;97935.53;5082452;28;41521;-78
2023/03/26 05:57:46;;;;;;;5.20;1.27;;;;;;;9.07;75.49;97931.50;5089640;28;40880;-79
2023/03/26 06:00:37;;;;;;;8.23;2.03;;;;;;;9.04;75.49;97913.22;5081499;28;42406;-78
2023/03/26 06:03:11;;;;;;;4.70;1.67;;;;;;;9.16;75.13;97917.63;5074256;28;41706;-79
2023/03/26 06:05:58;;;;;;;5.93;1.47;;;;;;;9.22;75.41;97919.84;5108045;28;41221;-79
2023/03/26 06:08:42;;;;;;;4.30;1.27;;;;;;;9.30;74.75;97915.69;5122353;27;39954;-79
2023/03/26 06:11:11;;;;;;;4.10;1.50;;;;;;;9.31;74.74;97896.25;5107844;28;40556;-79
2023/03/26 06:13:40;;;;;;;7.73;1.47;;;;;;;9.50;74.40;97908.13;5091036;28;45000;-79
2023/03/26 06:16:08;;;;;;;3.80;1.20;;;;;;;9.60;73.93;97907.34;5074002;28;40918;-79
2023/03/26 06:18:40;;;;;;;3.57;1.07;;;;;;;9.69;73.91;97904.00;5122284;27;40971;-78
2023/03/26 06:21:44;;;;;;;5.30;1.47;;;;;;;9.83;73.58;97902.13;5072916;28;40531;-78
2023/03/26 06:24:20;;;;;;;4.97;1.60;;;;;;;9.81;73.13;97880.25;5073040;28;41710;-78
2023/03/26 06:27:04;;;;;;;6.67;1.50;;;;;;;9.95;72.86;97885.34;5073933;28;42082;-78
2023/03/26 06:29:50;;;;;;;5.57;1.40;;;;;;;10.02;72.78;97886.56;5091572;28;39358;-78
2023/03/26 06:32:35;;;;;;;7.17;1.43;;;;;;;10.10;72.56;97889.47;5073974;28;40403;-78
2023/03/26 06:35:10;;;;;;;3.27;1.23;;;;;;;10.16;72.15;97882.88;5073457;28;41699;-77
2023/03/26 06:37:38;;;;;;;6.00;1.33;;;;;;;10.24;71.85;97876.09;5107510;28;41058;-78
2023/03/26 06:40:08;;;;;;;4.60;1.43;;;;;;;10.28;71.70;97861.63;5073389;28;40130;-78
2023/03/26 06:43:05;;;;;;;2.77;1.50;;;;;;;10.39;71.38;97861.63;5081409;28;40675;-77
2023/03/26 06:46:09;;;;;;;7.03;1.47;;;;;;;10.62;71.16;97880.22;5068921;28;42809;-77
2023/03/26 06:48:40;;;;;;;3.77;1.03;;;;;;;10.75;71.02;97881.78;5087985;28;42181;-78
2023/03/26 06:51:26;;;;;;;3.50;1.07;;;;;;;10.89;70.73;97887.75;5095286;28;40969;-77
2023/03/26 06:54:12;;;;;;;2.97;1.33;;;;;;;10.96;69.92;97887.19;5093719;28;42140;-78
2023/03/26 06:57:04;;;;;;;4.53;1.33;;;;;;;11.02;69.59;97873.44;5095559;27;42624;-78
2023/03/26 06:59:32;;;;;;;5.17;1.20;;;;;;;10.95;69.20;97852.84;5094065;28;42310;-78
2023/03/26 07:02:18;;;;;;;5.07;1.20;;;;;;;11.11;69.03;97869.22;5092230;28;41146;-77
2023/03/26 07:05:05;;;;;;;3.00;1.50;;;;;;;11.21;69.20;97866.66;5093730;28;40799;-77
2023/03/26 07:07:52;;;;;;;2.70;1.30;;;;;;;11.28;69.01;97866.03;5093831;28;41660;-77
2023/03/26 07:10:38;;;;;;;5.93;1.50;;;;;;;11.30;68.66;97866.75;5093599;28;42068;-77
2023/03/26 07:13:08;;;;;;;4.77;1.30;;;;;;;11.36;68.44;97865.44;5093807;28;39035;-77
2023/03/26 07:15:48;;;;;;;3.73;1.40;;;;;;;11.44;67.99;97857.69;5093933;28;42302;-78
2023/03/26 07:18:34;;;;;;;3.00;1.30;;;;;;;11.49;67.24;97858.16;5094131;28;41742;-78
2023/03/26 07:21:05;;;;;;;4.67;1.47;;;;;;;11.51;67.35;97858.84;5127301;27;43243;-77
2023/03/26 07:23:35;;;;;;;5.43;1.27;;;;;;;11.57;67.29;97854.88;5110940;28;38497;-78
2023/03/26 07:26:28;;;;;;;6.07;2.27;;;;;;;11.64;66.76;97848.91;5110914;28;40886;-77
2023/03/26 07:29:33;;;;;;;4.87;1.50;;;;;;;11.74;66.74;97844.56;5093228;28;42888;-78
2023/03/26 07:32:25;;;;;;;5.63;2.67;;;;;;;11.69;65.71;97832.63;5128010;27;42437;-77
2023/03/26 07:34:57;;;;;;;2.50;1.33;;;;;;;11.71;65.87;97844.81;5093062;28;38825;-78
2023/03/26 07:37:35;;;;;;;4.20;1.43;;;;;;;11.49;65.60;97810.44;5093901;28;41007;-78
2023/03/26 07:40:20;;;;;;;6.00;1.90;;;;;;;11.69;66.21;97829.97;5092176;28;43815;-79
2023/03/26 07:43:22;;;;;;;4.83;1.70;;;;;;;11.62;66.18;97818.22;5083095;28;41162;-79
2023/03/26 07:46:12;;;;;;;3.17;1.50;;;;;;;11.59;65.64;97805.19;5093923;28;42492;-79
2023/03/26 07:48:50;;;;;;;3.83;1.30;;;;;;;11.71;65.75;97818.28;5090118;28;41651;-79
2023/03/26 07:51:57;;;;;;;4.70;1.83;;;;;;;11.77;65.39;97816.94;5055424;28;41500;-79
2023/03/26 07:54:45;;;;;;;1.50;1.10;;;;;;;11.79;65.36;97809.69;5053522;28;41542;-79
2023/03/26 07:57:43;;;;;;;1.90;1.50;;;;;;;11.63;65.83;97794.19;5087618;28;39901;-78
2023/03/26 08:00:37;;;;;;;5.07;1.60;;;;;;;11.60;66.61;97791.81;5092825;28;42752;-79
2023/03/26 08:03:25;;;;;;;3.70;1.47;;;;;;;11.46;66.86;97781.53;5100272;28;42728;-80
2023/03/26 08:06:30;;;;;;;4.20;1.80;;;;;;;11.32;67.56;97784.47;5102470;28;41328;-79
2023/03/26 08:09:13;;;;;;;2.73;1.37;;;;;;;11.24;68.24;97781.63;5110528;28;39184;-79
2023/03/26 08:11:52;;;;;;;5.23;1.80;;;;;;;11.18;69.08;97774.16;5084475;28;41786;-84
2023/03/26 08:14:33;;;;;;;3.57;1.40;;;;;;;11.11;70.01;97750.84;5069472;28;42882;-82
2023/03/26 08:17:09;;;;;;;5.83;1.80;;;;;;;10.86;70.67;97698.19;5074796;28;41130;-81
2023/03/26 08:19:51;;;;;;;4.33;1.43;;;;;;;11.13;71.55;97754.16;5086172;28;40857;-82
2023/03/26 08:22:25;;;;;;;3.27;1.20;;;;;;;11.13;71.90;97754.16;5068133;28;40283;-82
2023/03/26 08:28:59;;;;;;;3.53;1.40;;;;;;;10.73;73.15;97700.16;5078344;28;42739;-80
2023/03/26 08:31:32;;;;;;;3.80;1.77;;;;;;;10.85;73.84;97736.22;5092524;28;39748;-78
2023/03/26 08:34:01;;;;;;;10.20;2.33;;;;;;;10.80;73.74;97730.44;5091493;28;41893;-80
2023/03/26 08:36:31;;;;;;;5.03;2.07;;;;;;;10.73;74.00;97729.28;5091574;28;42880;-80
2023/03/26 08:38:59;;;;;;;4.37;2.27;;;;;;;10.68;74.58;97727.00;5092633;28;42247;-79
2023/03/26 08:42:12;;;;;;;4.60;2.00;;;;;;;10.62;74.41;97714.25;5071406;28;39849;-79
2023/03/26 08:45:12;;;;;;;5.20;2.03;;;;;;;10.67;75.59;97713.88;4994759;28;42764;-79
2023/03/26 08:48:13;;;;;;;6.53;2.57;;;;;;;10.70;75.84;97713.63;5070460;28;42798;-78
2023/03/26 08:51:26;;;;;;;4.20;2.17;;;;;;;10.73;78.30;97708.09;5074057;28;42578;-79
2023/03/26 08:54:26;;;;;;;2.87;1.67;;;;;;;10.71;77.59;97710.03;5090124;28;40940;-80
2023/03/26 08:57:06;;;;;;;3.97;1.83;;;;;;;10.64;78.37;97711.47;5075112;28;41074;-81
2023/03/26 09:00:06;;;;;;;4.10;1.73;;;;;;;10.51;78.63;97693.09;5075528;28;41754;-87
2023/03/26 09:02:57;;;;;;;6.47;2.27;;;;;;;10.58;79.12;97701.38;5074536;28;40869;-84
2023/03/26 09:05:53;;;;;;;5.97;2.00;;;;;;;10.64;79.36;97703.53;5074627;28;39202;-80
2023/03/26 09:08:54;;;;;;;3.20;1.57;;;;;;;10.65;79.38;97699.91;5123582;27;41801;-79
2023/03/26 09:12:07;;;;;;;2.80;1.80;;;;;;;10.74;78.97;97699.19;5082507;28;42891;-80
2023/03/26 09:15:21;;;;;;;7.67;2.00;;;;;;;10.82;79.23;97691.44;5052888;28;42303;-79
2023/03/26 09:18:34;;;;;;;5.33;1.97;;;;;;;10.83;78.99;97687.84;5052566;28;40071;-77
2023/03/26 09:21:26;;;;;;;5.80;1.93;;;;;;;10.83;79.09;97692.28;5089635;28;42112;-79
2023/03/26 09:24:26;;;;;;;3.33;1.60;;;;;;;10.93;79.47;97690.56;5091172;28;42511;-87
2023/03/26 09:27:06;;;;;;;4.47;1.80;;;;;;;10.91;79.54;97674.78;5089193;28;42776;-84
2023/03/26 09:30:12;;;;;;;6.73;2.20;;;;;;;11.09;79.31;97678.56;5088563;28;39957;-80
2023/03/26 09:33:12;;;;;;;5.40;1.80;;;;;;;11.12;79.22;97665.09;5090788;28;42529;-81
2023/03/26 09:35:52;;;;;;;8.67;2.40;;;;;;;11.28;79.32;97669.06;5089134;28;42829;-84
2023/03/26 09:38:39;;;;;;;5.77;2.20;;;;;;;11.38;79.06;97672.63;5073323;28;42569;-81
2023/03/26 09:41:15;;;;;;;4.43;2.03;;;;;;;11.33;78.90;97669.53;5088868;28;42118;-83
2023/03/26 09:44:02;;;;;;;7.13;1.93;;;;;;;11.38;79.73;97676.09;5090607;28;41213;-84
2023/03/26 09:46:40;;;;;;;6.33;2.30;;;;;;;11.00;79.49;97634.28;5090236;28;41753;-81
2023/03/26 09:49:29;;;;;;;6.13;2.20;;;;;;;11.25;79.55;97677.31;5089679;28;42364;-78
2023/03/26 09:52:33;;;;;;;5.43;1.70;;;;;;;11.33;79.96;97680.97;5090404;28;38857;-78
2023/03/26 09:55:24;;;;;;;3.03;1.77;;;;;;;11.27;79.76;97677.97;5068279;28;41807;-80
2023/03/26 09:58:06;;;;;;;4.63;1.67;;;;;;;11.29;79.45;97673.41;5056191;28;41820;-80
2023/03/26 10:00:41;;;;;;;6.47;2.50;;;;;;;11.30;80.17;97675.09;5073273;28;41794;-80
2023/03/26 10:03:28;;;;;;;3.53;1.83;;;;;;;11.33;80.04;97675.69;5107034;28;38955;-81
2023/03/26 10:06:05;;;;;;;7.03;2.60;;;;;;;11.44;79.72;97682.72;5088049;28;42422;-80
2023/03/26 10:08:54;;;;;;;7.47;2.60;;;;;;;11.41;79.90;97669.72;5073235;28;43031;-80
2023/03/26 10:11:33;;;;;;;8.90;2.50;;;;;;;11.38;79.46;97672.63;5090060;28;40628;-76
2023/03/26 10:14:09;;;;;;;5.77;1.90;;;;;;;11.22;79.19;97629.84;5072587;28;39083;-79
2023/03/26 10:16:55;;;;;;;4.30;1.70;;;;;;;11.57;79.38;97678.06;5069440;28;40906;-80
2023/03/26 10:19:43;;;;;;;4.60;1.50;;;;;;;11.59;78.97;97676.13;5067604;28;41914;-78
2023/03/26 10:22:32;;;;;;;3.27;1.70;;;;;;;11.49;79.32;97670.78;5086265;28;42385;-78
2023/03/26 10:25:18;;;;;;;6.63;1.70;;;;;;;11.57;79.18;97664.81;5056143;28;38813;-82
2023/03/26 10:27:55;;;;;;;5.60;1.77;;;;;;;11.59;78.93;97667.31;5073218;28;42444;-81
2023/03/26 10:30:43;;;;;;;4.33;1.67;;;;;;;11.71;78.77;97663.63;5076594;28;42016;-80
2023/03/26 10:33:22;;;;;;;4.07;1.80;;;;;;;11.88;78.31;97653.25;5076123;28;41332;-81
2023/03/26 10:36:02;;;;;;;5.73;1.73;;;;;;;11.96;78.37;97610.16;5090617;28;41220;-86
2023/03/26 10:38:49;;;;;;;5.60;1.70;;;;;;;12.67;77.62;97658.63;5089328;28;41984;-85
2023/03/26 10:41:24;;;;;;;3.90;1.67;;;;;;;12.99;76.90;97653.03;5093430;28;42005;-82
2023/03/26 10:44:20;;;;;;;5.77;1.90;;;;;;;13.01;76.20;97661.72;5092381;28;42460;-86
2023/03/26 10:47:07;;;;;;;4.73;2.03;;;;;;;12.72;76.10;97655.56;5069954;28;38915;-86
2023/03/26 10:50:14;;;;;;;4.73;2.20;;;;;;;12.58;75.97;97659.47;5076606;28;42055;-80
2023/03/26 10:52:49;;;;;;;6.07;1.67;;;;;;;12.37;74.29;97645.44;5087055;28;41925;-81
2023/03/26 10:55:22;;;;;;;3.60;1.77;;;;;;;12.38;74.44;97668.34;5086741;28;42471;-78
2023/03/26 10:57:54;;;;;;;4.83;1.77;;;;;;;12.24;73.91;97661.59;5086601;28;38981;-78
2023/03/26 11:00:25;;;;;;;3.13;1.60;;;;;;;12.07;74.73;97660.47;5092787;28;40745;-82
2023/03/26 11:03:26;;;;;;;3.50;1.30;;;;;;;11.93;74.97;97667.94;5095217;28;42557;-80
2023/03/26 11:06:04;;;;;;;8.50;2.23;;;;;;;11.90;75.31;97668.19;5060613;28;42517;-77
2023/03/26 11:08:38;;;;;;;6.37;1.80;;;;;;;11.93;75.91;97647.56;5074123;28;39101;-81
2023/03/26 11:11:20;;;;;;;8.83;2.23;;;;;;;12.02;73.96;97683.03;5061119;28;40488;-86
2023/03/26 11:13:59;;;;;;;4.67;1.63;;;;;;;11.81;74.67;97641.50;5056872;28;42606;-80
2023/03/26 11:16:35;;;;;;;2.80;1.50;;;;;;;12.11;75.18;97634.50;5063751;28;41745;-79
2023/03/26 11:19:13;;;;;;;4.87;1.60;;;;;;;12.95;75.41;97633.91;5071803;28;39990;-82
2023/03/26 11:21:52;;;;;;;2.60;1.50;;;;;;;13.88;72.90;97630.50;5086218;28;40792;-81
2023/03/26 11:24:58;;;;;;;2.30;1.43;;;;;;;14.70;72.17;97606.53;5093213;28;42770;-82
2023/03/26 11:27:42;;;;;;;3.50;1.27;;;;;;;15.77;69.22;97630.34;5090095;28;42267;-80
2023/03/26 11:30:26;;;;;;;3.27;1.40;;;;;;;16.65;66.16;97649.63;5090064;28;41034;-81
2023/03/26 11:32:58;;;;;;;2.10;1.47;;;;;;;17.13;59.78;97660.38;5092440;28;41769;-83
2023/03/26 11:35:31;;;;;;;4.17;1.10;;;;;;;18.08;57.50;97668.69;5088860;28;43606;-83
2023/03/26 11:38:04;;;;;;;1.77;1.00;;;;;;;19.51;53.44;97661.06;5076479;28;42513;-83
2023/03/26 11:40:35;;;;;;;1.80;1.07;;;;;;;21.01;52.02;97666.06;5072398;28;39150;-87
2023/03/26 11:43:08;;;;;;;2.80;1.30;;;;;;;21.81;49.53;97673.84;5056919;28;42169;-83
2023/03/26 11:45:37;;;;;;;3.20;1.40;;;;;;;22.30;47.51;97664.88;5059413;28;41979;-81
2023/03/26 11:48:10;;;;;;;1.93;1.10;;;;;;;23.03;43.50;97708.41;5092560;28;43573;-84
2023/03/26 11:50:45;;;;;;;1.23;1.10;;;;;;;23.00;43.24;97706.13;5089950;28;40505;-85
2023/03/26 11:53:15;;;;;;;2.33;1.00;;;;;;;23.04;43.91;97692.03;5091785;28;42406;-84
2023/03/26 11:55:48;;;;;;;1.83;1.00;;;;;;;22.36;42.68;97690.25;5092479;28;41955;-83
2023/03/26 11:58:30;;;;;;;2.80;1.10;;;;;;;21.78;42.44;97701.19;5092934;28;41126;-79
2023/03/26 12:00:58;;;;;;;1.27;0.80;;;;;;;20.76;43.74;97678.19;5109809;28;39013;-84
2023/03/26 12:03:29;;;;;;;3.23;0.93;;;;;;;20.64;45.55;97652.78;5075711;28;40855;-83
2023/03/26 12:06:02;;;;;;;2.20;1.30;;;;;;;20.48;45.06;97653.00;5089331;28;43696;-83
2023/03/26 12:08:34;;;;;;;2.03;1.57;;;;;;;20.08;45.83;97642.50;5092541;28;42269;-81
2023/03/26 12:11:09;;;;;;;7.90;7.00;;;;;;;20.12;45.47;97642.13;5102970;28;39272;-81
2023/03/26 12:13:45;;;;;;;5.07;2.00;;;;;;;19.85;46.19;97635.53;5088613;28;43067;-80
2023/03/26 12:16:15;;;;;;;1.30;0.90;;;;;;;20.48;46.43;97628.78;5092099;28;43100;-80
2023/03/26 12:18:45;;;;;;;2.00;1.50;;;;;;;22.79;43.15;97640.44;5106056;28;41954;-80
2023/03/26 12:21:15;;;;;;;2.43;1.33;;;;;;;24.70;38.54;97659.38;5062155;28;39964;-85
2023/03/26 12:23:54;;;;;;;2.20;1.13;;;;;;;25.86;37.77;97659.06;5056913;28;40498;-83
2023/03/26 12:26:32;;;;;;;1.93;1.20;;;;;;;27.04;36.19;97623.56;5081937;28;41508;-82
2023/03/26 12:29:08;;;;;;;1.70;1.50;;;;;;;27.27;34.41;97661.69;5091777;28;42342;-83
2023/03/26 12:32:04;;;;;;;2.97;1.37;;;;;;;25.45;36.13;97653.34;5088706;28;40521;-82
2023/03/26 12:34:34;;;;;;;1.77;1.00;;;;;;;23.98;36.95;97635.97;5091059;28;41649;-81
2023/03/26 12:37:04;;;;;;;2.33;1.10;;;;;;;22.72;39.02;97631.47;5091727;28;43390;-82